Time;durP1;ratioP1;P1;durP2;ratioP2;P2;SDS_P1;SDS_P2;PMS_P1;PMS_P2;Temp;Humidity;BMP_temperature;BMP_pressure;BME280_temperature;BME280_humidity;BME280_pressure;Samples;Min_cycle;Max_cycle;Signal;HPM_P1;HPM_P2
2023/01/31 00:02:00;;;;;;;13.67;5.77;;;2.30;99.90;;;;;;5027017;28;20058;-82
2023/01/31 00:04:26;;;;;;;7.97;4.27;;;2.30;99.90;;;;;;5026688;28;20022;-81
2023/01/31 00:06:52;;;;;;;9.67;4.63;;;2.30;99.90;;;;;;5025672;28;20026;-82
2023/01/31 00:09:18;;;;;;;9.17;4.23;;;2.30;99.90;;;;;;5024844;28;20033;-81
2023/01/31 00:11:44;;;;;;;9.60;4.80;;;2.30;99.90;;;;;;5026154;28;20036;-81
2023/01/31 00:14:16;;;;;;;8.40;4.50;;;2.20;99.90;;;;;;5026406;28;20396;-81
2023/01/31 00:16:42;;;;;;;9.07;4.60;;;2.20;99.90;;;;;;5026731;28;20060;-81
2023/01/31 00:19:07;;;;;;;10.47;4.93;;;2.20;99.90;;;;;;5026505;28;20104;-82
2023/01/31 00:21:33;;;;;;;8.40;4.50;;;2.20;99.90;;;;;;5026552;28;20037;-81
2023/01/31 00:23:59;;;;;;;8.83;4.80;;;2.20;99.90;;;;;;5026099;28;20049;-81
2023/01/31 00:26:33;;;;;;;9.63;5.27;;;2.20;99.90;;;;;;5027165;28;20099;-81
2023/01/31 00:29:00;;;;;;;10.40;5.73;;;2.20;99.90;;;;;;5026120;28;20159;-81
2023/01/31 00:31:27;;;;;;;10.47;5.43;;;2.20;99.90;;;;;;5026514;28;20447;-82
2023/01/31 00:33:54;;;;;;;9.43;5.43;;;2.30;99.90;;;;;;5026091;28;20025;-82
2023/01/31 00:36:23;;;;;;;10.20;5.20;;;2.20;99.90;;;;;;5026377;28;20025;-82
2023/01/31 00:38:50;;;;;;;8.53;5.20;;;2.20;99.90;;;;;;5026066;28;20025;-82
2023/01/31 00:41:15;;;;;;;9.83;5.57;;;2.20;99.90;;;;;;5025566;28;20068;-81
2023/01/31 00:43:41;;;;;;;9.50;5.73;;;2.20;99.90;;;;;;5026317;28;20029;-82
2023/01/31 00:46:09;;;;;;;10.27;5.50;;;2.20;99.90;;;;;;5025976;28;21466;-82
2023/01/31 00:48:35;;;;;;;9.03;5.37;;;2.10;99.90;;;;;;5026113;28;21011;-81
2023/01/31 00:51:00;;;;;;;10.53;5.50;;;2.20;99.90;;;;;;5024625;28;20024;-82
2023/01/31 00:53:26;;;;;;;9.03;5.30;;;2.20;99.90;;;;;;5025139;28;20842;-82
2023/01/31 00:55:53;;;;;;;10.03;5.43;;;2.30;99.90;;;;;;5025868;28;20033;-81
2023/01/31 00:58:19;;;;;;;9.90;5.53;;;2.30;99.90;;;;;;5025950;28;20034;-81
2023/01/31 01:00:46;;;;;;;9.43;5.77;;;2.30;99.90;;;;;;5026293;28;20390;-82
2023/01/31 01:03:11;;;;;;;12.13;5.50;;;2.30;99.90;;;;;;5025539;28;20542;-81
2023/01/31 01:05:37;;;;;;;9.63;5.70;;;2.20;99.90;;;;;;5026151;28;20021;-81
2023/01/31 01:08:03;;;;;;;10.93;6.00;;;2.30;99.90;;;;;;5025725;28;20163;-81
2023/01/31 01:10:28;;;;;;;14.53;6.37;;;2.20;99.90;;;;;;5024270;28;20036;-81
2023/01/31 01:12:54;;;;;;;11.03;5.70;;;2.20;99.90;;;;;;5024333;28;20494;-82
2023/01/31 01:15:19;;;;;;;9.03;5.70;;;2.10;99.90;;;;;;5025734;28;20170;-82
2023/01/31 01:17:45;;;;;;;11.80;5.90;;;2.20;99.90;;;;;;5024148;28;20029;-81
2023/01/31 01:20:11;;;;;;;12.70;6.67;;;2.20;99.90;;;;;;5025891;28;20052;-82
2023/01/31 01:22:37;;;;;;;10.60;5.87;;;2.10;99.90;;;;;;5025288;28;20147;-81
2023/01/31 01:25:06;;;;;;;10.07;5.63;;;2.10;99.90;;;;;;5025359;28;20030;-82
2023/01/31 01:27:31;;;;;;;10.20;6.00;;;2.10;99.90;;;;;;5023511;28;20647;-82
2023/01/31 01:29:57;;;;;;;9.90;5.70;;;2.10;99.90;;;;;;5025243;28;20029;-82
2023/01/31 01:32:23;;;;;;;10.20;6.07;;;2.20;99.90;;;;;;5025525;28;20081;-82
2023/01/31 01:34:49;;;;;;;12.93;7.43;;;2.20;99.90;;;;;;5025372;28;20030;-82
2023/01/31 01:37:18;;;;;;;11.20;6.63;;;2.10;99.90;;;;;;5025000;28;20025;-82
2023/01/31 01:39:48;;;;;;;9.67;5.87;;;2.00;99.90;;;;;;5023703;28;20029;-82
2023/01/31 01:42:22;;;;;;;10.57;6.33;;;2.00;99.90;;;;;;5023296;28;20032;-81
2023/01/31 01:44:52;;;;;;;11.43;6.07;;;2.00;99.90;;;;;;5023662;28;20029;-82
2023/01/31 01:47:41;;;;;;;16.00;6.63;;;2.00;99.90;;;;;;5025047;28;20025;-81
2023/01/31 01:50:10;;;;;;;9.40;5.63;;;2.00;99.90;;;;;;5025014;28;20170;-81
2023/01/31 01:52:58;;;;;;;13.10;6.87;;;2.00;99.90;;;;;;5024498;28;20030;-82
2023/01/31 01:55:51;;;;;;;11.77;5.40;;;2.10;99.90;;;;;;5018234;28;20033;-82
2023/01/31 01:58:24;;;;;;;12.20;6.17;;;2.10;99.90;;;;;;5018398;28;20699;-81
2023/01/31 02:00:50;;;;;;;11.03;6.00;;;2.00;99.90;;;;;;5024641;28;20025;-82
2023/01/31 02:03:16;;;;;;;12.20;6.60;;;2.00;99.90;;;;;;5025168;28;20155;-81
2023/01/31 02:06:03;;;;;;;13.87;6.83;;;2.00;99.90;;;;;;5024592;28;20540;-82
2023/01/31 02:08:32;;;;;;;12.57;6.17;;;1.90;99.90;;;;;;5024523;28;20033;-82
2023/01/31 02:11:09;;;;;;;15.27;6.33;;;2.00;99.90;;;;;;5024482;28;20022;-82
2023/01/31 02:13:39;;;;;;;15.60;7.60;;;1.90;99.90;;;;;;5024293;28;20490;-82
2023/01/31 02:16:04;;;;;;;11.13;6.03;;;1.90;99.90;;;;;;5025366;28;20785;-82
2023/01/31 02:18:30;;;;;;;11.03;5.73;;;1.90;99.90;;;;;;5027545;28;20091;-82
2023/01/31 02:21:32;;;;;;;11.27;6.20;;;1.90;99.90;;;;;;5027897;28;20105;-82
2023/01/31 02:24:01;;;;;;;12.70;5.83;;;1.90;99.90;;;;;;5026776;28;20030;-81
2023/01/31 02:26:29;;;;;;;13.10;5.97;;;1.90;99.90;;;;;;5028859;28;20435;-82
2023/01/31 02:29:10;;;;;;;12.80;5.73;;;1.90;99.90;;;;;;5026265;28;20025;-81
2023/01/31 02:32:03;;;;;;;13.57;6.23;;;1.90;99.90;;;;;;5025161;28;20543;-81
2023/01/31 02:34:40;;;;;;;9.77;6.20;;;1.90;99.90;;;;;;5023858;28;20421;-82
2023/01/31 02:37:30;;;;;;;11.93;6.00;;;1.90;99.90;;;;;;5023866;28;21298;-82
2023/01/31 02:40:01;;;;;;;10.67;6.17;;;1.80;99.90;;;;;;5024528;28;20033;-81
2023/01/31 02:42:53;;;;;;;14.40;6.30;;;1.80;99.90;;;;;;5024458;28;20057;-81
2023/01/31 02:45:27;;;;;;;13.07;5.93;;;1.70;99.90;;;;;;5013802;28;20123;-82
2023/01/31 02:48:14;;;;;;;10.43;6.80;;;1.70;99.90;;;;;;5023967;28;20036;-81
2023/01/31 02:50:52;;;;;;;11.13;6.03;;;1.70;99.90;;;;;;5023868;28;20032;-82
2023/01/31 02:53:28;;;;;;;10.60;5.60;;;1.70;99.90;;;;;;5024098;28;20032;-81
2023/01/31 02:56:17;;;;;;;13.10;6.63;;;1.70;99.90;;;;;;5023923;28;20048;-81
2023/01/31 02:59:08;;;;;;;10.73;5.80;;;1.70;99.90;;;;;;5023943;28;20033;-82
2023/01/31 03:01:42;;;;;;;9.97;6.33;;;1.70;99.90;;;;;;5024246;28;20596;-81
2023/01/31 03:04:10;;;;;;;11.30;5.77;;;1.70;99.90;;;;;;5023679;28;20033;-82
2023/01/31 03:06:36;;;;;;;15.53;6.50;;;1.70;99.90;;;;;;5023730;28;20436;-82
2023/01/31 03:09:12;;;;;;;11.40;6.47;;;1.70;99.90;;;;;;5022016;28;20055;-81
2023/01/31 03:11:55;;;;;;;11.13;5.73;;;1.70;99.90;;;;;;5021379;28;20029;-81
2023/01/31 03:14:30;;;;;;;10.80;5.60;;;1.70;99.90;;;;;;5022753;28;20138;-81
2023/01/31 03:20:05;;;;;;;12.63;6.17;;;1.70;99.90;;;;;;5023369;28;20116;-81
2023/01/31 03:22:36;;;;;;;10.20;5.60;;;1.70;99.90;;;;;;5023156;28;20059;-81
2023/01/31 03:25:04;;;;;;;13.30;5.87;;;1.60;99.90;;;;;;5021440;28;20036;-81
2023/01/31 03:27:30;;;;;;;11.80;6.33;;;1.60;99.90;;;;;;5022576;28;20106;-81
2023/01/31 03:30:01;;;;;;;8.60;5.73;;;1.60;99.90;;;;;;5022399;28;20431;-81
2023/01/31 03:32:35;;;;;;;11.77;6.10;;;1.60;99.90;;;;;;5023494;28;20786;-81
2023/01/31 03:35:01;;;;;;;11.83;5.60;;;1.60;99.90;;;;;;5021724;28;20116;-81
2023/01/31 03:37:50;;;;;;;10.43;5.93;;;1.60;99.90;;;;;;5023295;28;21335;-81
2023/01/31 03:40:28;;;;;;;10.77;5.70;;;1.60;99.90;;;;;;5023869;28;20151;-81
2023/01/31 03:43:01;;;;;;;11.53;5.60;;;1.50;99.90;;;;;;5023569;28;20168;-82
2023/01/31 03:45:34;;;;;;;11.67;5.87;;;1.50;99.90;;;;;;5023487;28;20509;-82
2023/01/31 03:48:02;;;;;;;15.23;6.00;;;1.50;99.90;;;;;;5023129;28;20026;-82
2023/01/31 03:50:37;;;;;;;11.30;5.63;;;1.50;99.90;;;;;;5023136;28;20424;-82
2023/01/31 03:53:18;;;;;;;13.48;5.78;;;1.50;99.90;;;;;;5023199;28;20028;-82
2023/01/31 03:56:01;;;;;;;14.80;5.70;;;1.40;99.90;;;;;;5022799;28;20671;-82
2023/01/31 03:58:30;;;;;;;10.33;5.93;;;1.40;99.90;;;;;;5023157;28;20064;-81
2023/01/31 04:01:00;;;;;;;9.83;6.47;;;1.40;99.90;;;;;;5023285;28;20022;-81
2023/01/31 04:03:34;;;;;;;12.20;6.13;;;1.40;99.90;;;;;;5022930;28;20032;-81
2023/01/31 04:06:00;;;;;;;10.50;5.97;;;1.40;99.90;;;;;;5023012;28;20059;-82
2023/01/31 04:08:25;;;;;;;10.30;6.17;;;1.30;99.90;;;;;;5022873;28;20045;-82
2023/01/31 04:10:53;;;;;;;12.87;5.77;;;1.30;99.90;;;;;;5023208;28;20029;-82
2023/01/31 04:13:18;;;;;;;12.03;5.77;;;1.30;99.90;;;;;;5021049;28;20120;-81
2023/01/31 04:15:44;;;;;;;12.70;6.07;;;1.20;99.90;;;;;;5022897;28;20051;-82
2023/01/31 04:18:09;;;;;;;11.33;6.27;;;1.20;99.90;;;;;;5026315;28;20627;-82
2023/01/31 04:20:35;;;;;;;13.10;5.90;;;1.20;99.90;;;;;;5025274;28;20474;-82
2023/01/31 04:23:02;;;;;;;10.50;6.33;;;1.20;99.90;;;;;;5026713;28;20456;-81
2023/01/31 04:25:27;;;;;;;15.10;7.40;;;1.20;99.90;;;;;;5026481;28;20036;-82
2023/01/31 04:27:53;;;;;;;10.30;6.37;;;1.10;99.90;;;;;;5026606;28;20459;-82
2023/01/31 04:30:18;;;;;;;12.10;5.80;;;1.10;99.90;;;;;;5027161;28;20033;-82
2023/01/31 04:32:44;;;;;;;13.63;6.37;;;1.10;99.90;;;;;;5026331;28;20029;-82
2023/01/31 04:35:09;;;;;;;13.70;6.20;;;1.10;99.90;;;;;;5024984;28;20033;-81
2023/01/31 04:37:35;;;;;;;11.27;6.10;;;1.10;99.90;;;;;;5026514;28;20037;-82
2023/01/31 04:40:00;;;;;;;13.80;5.97;;;1.10;99.90;;;;;;5026220;28;20037;-82
2023/01/31 04:42:26;;;;;;;12.13;7.00;;;1.10;99.90;;;;;;5027476;28;20136;-81
2023/01/31 04:44:52;;;;;;;14.23;6.30;;;1.10;99.90;;;;;;5026359;28;20065;-82
2023/01/31 04:47:17;;;;;;;11.23;6.03;;;1.10;99.90;;;;;;5025863;28;20056;-82
2023/01/31 04:49:43;;;;;;;14.67;7.87;;;1.10;99.90;;;;;;5026326;28;20479;-81
2023/01/31 04:52:09;;;;;;;13.30;5.93;;;1.10;99.90;;;;;;5026346;28;21428;-82
2023/01/31 04:54:35;;;;;;;14.47;7.10;;;1.20;99.90;;;;;;5025943;28;20573;-82
2023/01/31 04:57:01;;;;;;;12.10;6.50;;;1.20;99.90;;;;;;5025968;28;20030;-82
2023/01/31 04:59:27;;;;;;;11.60;5.70;;;1.20;99.90;;;;;;5026077;28;20042;-82
2023/01/31 05:01:52;;;;;;;12.77;6.00;;;1.20;99.90;;;;;;5024787;28;21371;-82
2023/01/31 05:04:18;;;;;;;11.10;6.27;;;1.20;99.90;;;;;;5025765;28;20468;-82
2023/01/31 05:06:43;;;;;;;13.40;6.20;;;1.20;99.90;;;;;;5026000;28;20091;-82
2023/01/31 05:09:10;;;;;;;9.10;5.37;;;1.20;99.90;;;;;;5029813;28;20134;-82
2023/01/31 05:11:36;;;;;;;13.30;5.73;;;1.20;99.90;;;;;;5034960;28;20013;-81
2023/01/31 05:14:02;;;;;;;11.10;5.90;;;1.20;99.90;;;;;;5032104;28;20121;-75
2023/01/31 05:16:27;;;;;;;12.63;5.47;;;1.20;99.90;;;;;;5034539;28;20029;-81
2023/01/31 05:18:53;;;;;;;11.27;6.20;;;1.10;99.90;;;;;;5032674;28;20453;-81
2023/01/31 05:21:18;;;;;;;13.50;5.57;;;1.10;99.90;;;;;;5029192;28;20028;-81
2023/01/31 05:23:44;;;;;;;11.53;5.60;;;1.10;99.90;;;;;;5032779;28;20033;-81
2023/01/31 05:26:10;;;;;;;13.83;5.90;;;1.10;99.90;;;;;;5031705;28;20037;-81
2023/01/31 05:28:35;;;;;;;11.23;5.97;;;1.10;99.90;;;;;;5027320;28;20114;-81
2023/01/31 05:31:04;;;;;;;10.67;5.63;;;1.10;99.90;;;;;;5023252;28;20033;-82
2023/01/31 05:33:30;;;;;;;13.23;6.00;;;1.10;99.90;;;;;;5023852;28;20167;-81
2023/01/31 05:35:56;;;;;;;18.17;6.13;;;1.10;99.90;;;;;;5025051;28;20033;-81
2023/01/31 05:38:22;;;;;;;11.97;5.47;;;1.10;99.90;;;;;;5024700;28;20055;-81
2023/01/31 05:40:49;;;;;;;13.93;6.27;;;1.10;99.90;;;;;;5024404;28;20024;-81
2023/01/31 05:43:15;;;;;;;12.57;5.43;;;1.10;99.90;;;;;;5024740;28;20033;-81
2023/01/31 05:45:40;;;;;;;12.43;6.03;;;1.10;99.90;;;;;;5024624;28;21446;-81
2023/01/31 05:48:07;;;;;;;15.77;6.17;;;1.10;99.90;;;;;;5024431;28;20501;-81
2023/01/31 05:50:32;;;;;;;13.50;5.80;;;1.10;99.90;;;;;;5024389;28;20430;-81
2023/01/31 05:52:59;;;;;;;16.90;6.30;;;1.10;99.90;;;;;;5023994;28;20104;-81
2023/01/31 05:55:25;;;;;;;11.73;5.23;;;1.10;99.90;;;;;;5024138;28;20030;-81
2023/01/31 05:57:54;;;;;;;9.40;5.57;;;1.20;99.90;;;;;;5024142;28;20021;-81
2023/01/31 06:00:21;;;;;;;9.87;5.13;;;1.10;99.90;;;;;;5023086;28;20030;-81
2023/01/31 06:02:47;;;;;;;10.47;5.70;;;1.10;99.90;;;;;;5026677;28;20021;-81
2023/01/31 06:05:13;;;;;;;15.83;5.23;;;1.00;99.90;;;;;;5026901;28;20539;-82
2023/01/31 06:07:39;;;;;;;13.40;5.40;;;1.10;99.90;;;;;;5025453;28;20021;-81
2023/01/31 06:10:06;;;;;;;17.03;5.87;;;1.10;99.90;;;;;;5027175;28;20017;-81
2023/01/31 06:12:32;;;;;;;10.17;5.00;;;1.10;99.90;;;;;;5027536;28;20021;-81
2023/01/31 06:14:58;;;;;;;15.47;5.37;;;1.10;99.90;;;;;;5026840;28;20048;-81
2023/01/31 06:17:23;;;;;;;16.40;5.63;;;1.10;99.90;;;;;;5026258;28;20025;-81
2023/01/31 06:19:50;;;;;;;12.73;4.83;;;1.10;99.90;;;;;;5025081;28;20113;-82
2023/01/31 06:22:16;;;;;;;9.83;5.33;;;1.10;99.90;;;;;;5028014;28;20481;-82
2023/01/31 06:24:42;;;;;;;14.33;5.63;;;1.10;99.90;;;;;;5028555;28;20033;-81
2023/01/31 06:27:08;;;;;;;14.90;6.03;;;1.10;99.90;;;;;;5026795;28;20045;-81
2023/01/31 06:29:34;;;;;;;10.97;5.50;;;1.00;99.90;;;;;;5028576;28;20159;-82
2023/01/31 06:31:59;;;;;;;8.00;5.27;;;1.10;99.90;;;;;;5027350;28;20760;-81
2023/01/31 06:34:25;;;;;;;12.70;5.73;;;1.00;99.90;;;;;;5025081;28;20626;-81
2023/01/31 06:36:51;;;;;;;10.67;5.13;;;1.10;99.90;;;;;;5026210;28;20395;-81
2023/01/31 06:39:16;;;;;;;11.53;5.33;;;1.00;99.90;;;;;;5026480;28;20382;-81
2023/01/31 06:41:42;;;;;;;14.67;5.30;;;1.10;99.90;;;;;;5026925;28;20547;-82
2023/01/31 06:44:07;;;;;;;11.40;5.60;;;1.10;99.90;;;;;;5027499;28;20055;-82
2023/01/31 06:46:33;;;;;;;8.77;5.10;;;1.10;99.90;;;;;;5027177;28;20025;-82
2023/01/31 06:48:58;;;;;;;14.33;5.93;;;1.00;99.90;;;;;;5026937;28;20096;-82
2023/01/31 06:51:24;;;;;;;13.00;5.80;;;1.00;99.90;;;;;;5032096;28;20026;-83
2023/01/31 06:53:51;;;;;;;14.50;6.47;;;1.00;99.90;;;;;;5022009;28;20070;-83
2023/01/31 06:56:17;;;;;;;13.83;5.40;;;1.00;99.90;;;;;;5020915;28;20034;-83
2023/01/31 06:58:43;;;;;;;10.33;6.23;;;1.00;99.90;;;;;;5021335;28;20048;-83
2023/01/31 07:01:11;;;;;;;11.67;5.60;;;1.00;99.90;;;;;;5022383;28;20470;-83
2023/01/31 07:03:37;;;;;;;10.40;4.93;;;1.00;99.90;;;;;;5021399;28;20115;-83
2023/01/31 07:06:03;;;;;;;16.13;5.73;;;1.10;99.90;;;;;;5023040;28;20439;-83
2023/01/31 07:08:30;;;;;;;10.17;5.07;;;1.10;99.90;;;;;;5020816;28;20483;-83
2023/01/31 07:10:56;;;;;;;11.87;5.93;;;1.10;99.90;;;;;;5022473;28;20060;-83
2023/01/31 07:13:22;;;;;;;9.83;4.83;;;1.20;99.90;;;;;;5022249;28;20830;-83
2023/01/31 07:15:47;;;;;;;15.07;5.60;;;1.10;99.90;;;;;;5021923;28;20028;-83
2023/01/31 07:18:13;;;;;;;11.97;5.10;;;1.20;99.90;;;;;;5020769;28;20029;-83
2023/01/31 07:20:42;;;;;;;14.93;5.53;;;1.10;99.90;;;;;;5021349;28;21049;-83
2023/01/31 07:23:08;;;;;;;12.97;5.43;;;1.10;99.90;;;;;;5021036;28;20141;-83
2023/01/31 07:25:34;;;;;;;14.13;5.57;;;1.10;99.90;;;;;;5021188;28;20294;-83
2023/01/31 07:28:01;;;;;;;15.37;6.17;;;1.10;99.90;;;;;;5020212;28;20021;-83
2023/01/31 07:30:27;;;;;;;12.20;5.33;;;1.10;99.90;;;;;;5023119;28;20879;-83
2023/01/31 07:32:53;;;;;;;13.87;5.50;;;1.10;99.90;;;;;;5020300;28;20156;-83
2023/01/31 07:35:19;;;;;;;13.83;6.03;;;1.20;99.90;;;;;;5021115;28;20036;-83
2023/01/31 07:37:45;;;;;;;14.70;7.40;;;1.20;99.90;;;;;;5022948;28;20064;-83
2023/01/31 07:40:13;;;;;;;12.17;5.37;;;1.20;99.90;;;;;;5021892;28;20112;-83
2023/01/31 07:42:39;;;;;;;12.83;4.80;;;1.30;99.90;;;;;;5019704;28;20124;-82
2023/01/31 07:45:06;;;;;;;12.40;5.47;;;1.30;99.90;;;;;;5020615;28;20021;-83
2023/01/31 07:47:31;;;;;;;11.17;5.00;;;1.30;99.90;;;;;;5016618;28;20649;-83
2023/01/31 07:49:57;;;;;;;11.50;4.70;;;1.20;99.90;;;;;;5018143;28;20032;-83
2023/01/31 07:52:23;;;;;;;11.57;5.57;;;1.30;99.90;;;;;;5021249;28;20091;-83
2023/01/31 07:54:48;;;;;;;12.30;5.40;;;1.30;99.90;;;;;;5023729;28;20056;-83
2023/01/31 07:57:16;;;;;;;10.40;5.33;;;1.30;99.90;;;;;;5025554;28;20060;-83
2023/01/31 07:59:43;;;;;;;11.70;5.47;;;1.30;99.90;;;;;;5025827;28;20018;-83
2023/01/31 08:04:56;;;;;;;11.03;5.13;;;1.40;99.90;;;;;;5025146;28;20064;-83
2023/01/31 08:07:21;;;;;;;17.50;5.73;;;1.30;99.90;;;;;;5024250;28;20021;-83
2023/01/31 08:09:49;;;;;;;12.23;4.87;;;1.30;99.90;;;;;;5023955;28;20042;-83
2023/01/31 08:12:14;;;;;;;16.43;6.37;;;1.30;99.90;;;;;;5023766;28;20402;-83
2023/01/31 08:14:40;;;;;;;8.83;4.20;;;1.30;99.90;;;;;;5023244;28;20025;-84
2023/01/31 08:17:07;;;;;;;11.73;4.73;;;1.30;99.90;;;;;;5025354;28;20026;-84
2023/01/31 08:19:33;;;;;;;11.63;4.83;;;1.30;99.90;;;;;;5025170;28;20056;-84
2023/01/31 08:21:59;;;;;;;9.87;4.57;;;1.30;99.90;;;;;;5023894;28;20076;-84
2023/01/31 08:24:24;;;;;;;10.80;4.17;;;1.30;99.90;;;;;;5025515;28;20116;-84
2023/01/31 08:26:50;;;;;;;9.07;4.33;;;1.30;99.90;;;;;;5023326;28;20040;-84
2023/01/31 08:29:16;;;;;;;10.50;5.07;;;1.30;99.90;;;;;;5023187;28;20561;-84
2023/01/31 08:31:41;;;;;;;12.40;5.13;;;1.30;99.90;;;;;;5023585;28;20053;-84
2023/01/31 08:34:07;;;;;;;10.60;4.37;;;1.30;99.90;;;;;;5023043;28;20061;-84
2023/01/31 08:36:34;;;;;;;15.83;4.90;;;1.30;99.90;;;;;;5025192;28;20038;-83
2023/01/31 08:39:00;;;;;;;13.63;5.07;;;1.30;99.90;;;;;;5022977;28;20029;-83
2023/01/31 08:41:27;;;;;;;12.03;4.50;;;1.40;99.90;;;;;;5023695;28;20041;-83
2023/01/31 08:43:54;;;;;;;11.63;3.90;;;1.40;99.90;;;;;;5025110;28;20120;-83
2023/01/31 08:46:20;;;;;;;10.60;3.77;;;1.50;99.90;;;;;;5024819;28;20130;-83
2023/01/31 08:48:46;;;;;;;11.70;4.10;;;1.50;99.90;;;;;;5022831;28;20037;-83
2023/01/31 08:51:12;;;;;;;10.83;4.13;;;1.50;99.90;;;;;;5023851;28;20421;-83
2023/01/31 08:53:43;;;;;;;13.20;4.00;;;1.60;99.90;;;;;;5023029;28;20466;-83
2023/01/31 08:56:09;;;;;;;11.57;3.90;;;1.70;99.90;;;;;;5024935;28;20029;-83
2023/01/31 08:58:37;;;;;;;18.13;4.40;;;1.70;99.90;;;;;;5023714;28;20025;-83
2023/01/31 09:01:09;;;;;;;13.47;3.57;;;1.80;99.90;;;;;;5019465;28;21392;-83
2023/01/31 09:03:35;;;;;;;9.83;3.60;;;1.90;99.90;;;;;;5022107;28;20026;-83
2023/01/31 09:06:04;;;;;;;18.27;4.20;;;1.80;99.90;;;;;;5023072;28;21362;-83
2023/01/31 09:08:30;;;;;;;14.13;3.80;;;1.90;99.90;;;;;;5021680;28;20486;-83
2023/01/31 09:10:59;;;;;;;10.50;4.17;;;1.90;99.90;;;;;;5023654;28;20109;-83
2023/01/31 09:13:25;;;;;;;10.43;3.97;;;2.00;99.90;;;;;;5023529;28;20021;-83
2023/01/31 09:16:02;;;;;;;11.10;3.90;;;2.10;99.90;;;;;;5022080;28;20080;-83
2023/01/31 09:18:28;;;;;;;14.20;3.83;;;2.20;99.90;;;;;;5025867;28;20025;-83
2023/01/31 09:20:54;;;;;;;17.60;5.03;;;2.20;99.90;;;;;;5030627;28;20036;-83
2023/01/31 09:23:20;;;;;;;12.20;4.57;;;2.30;99.90;;;;;;5028899;28;20033;-83
2023/01/31 09:25:55;;;;;;;10.67;3.73;;;2.30;99.90;;;;;;5031765;28;20096;-84
2023/01/31 09:28:22;;;;;;;10.82;3.60;;;2.30;99.90;;;;;;5030842;28;20026;-83
2023/01/31 09:30:48;;;;;;;20.63;4.27;;;2.40;99.90;;;;;;5029811;28;20026;-83
2023/01/31 09:33:14;;;;;;;10.33;3.20;;;2.50;99.90;;;;;;5030584;28;20116;-83
2023/01/31 09:35:39;;;;;;;11.20;3.80;;;2.70;99.90;;;;;;5029878;28;20120;-83
2023/01/31 09:38:05;;;;;;;15.67;3.30;;;2.80;99.90;;;;;;5025234;28;20060;-83
2023/01/31 09:40:34;;;;;;;12.40;3.77;;;2.80;99.90;;;;;;5025225;28;21276;-83
2023/01/31 09:43:02;;;;;;;8.93;3.20;;;2.90;99.90;;;;;;5022876;28;20960;-83
2023/01/31 09:45:34;;;;;;;16.13;3.50;;;3.00;99.90;;;;;;5024656;28;20045;-83
2023/01/31 09:48:01;;;;;;;10.23;3.17;;;3.10;99.90;;;;;;5023504;28;20025;-83
2023/01/31 09:50:33;;;;;;;14.07;3.50;;;3.10;99.90;;;;;;5022930;28;20045;-84
2023/01/31 09:52:58;;;;;;;11.00;3.17;;;3.20;99.90;;;;;;5021189;28;20026;-83
2023/01/31 09:55:43;;;;;;;12.97;3.30;;;3.20;99.90;;;;;;5023485;28;20048;-83
2023/01/31 09:58:17;;;;;;;27.50;3.70;;;3.30;99.90;;;;;;5022309;28;20041;-83
2023/01/31 10:00:51;;;;;;;13.13;3.63;;;3.20;99.90;;;;;;5024297;28;20116;-83
2023/01/31 10:03:35;;;;;;;11.53;4.20;;;3.20;99.90;;;;;;5022794;28;20052;-83
2023/01/31 10:06:11;;;;;;;12.50;3.10;;;3.10;99.90;;;;;;5023938;28;20029;-83
2023/01/31 10:08:50;;;;;;;9.27;3.57;;;3.00;99.90;;;;;;5024086;28;20450;-83
2023/01/31 10:11:30;;;;;;;24.40;3.80;;;3.00;99.90;;;;;;5024520;28;20352;-83
2023/01/31 10:14:03;;;;;;;12.07;3.10;;;3.10;99.90;;;;;;5021119;28;20071;-83
2023/01/31 10:17:02;;;;;;;7.90;2.63;;;3.10;99.90;;;;;;5023589;28;20033;-83
2023/01/31 10:19:41;;;;;;;9.70;2.87;;;3.10;99.90;;;;;;5021690;28;20491;-83
2023/01/31 10:22:11;;;;;;;8.80;2.43;;;3.20;99.90;;;;;;5021600;28;20037;-83
2023/01/31 10:24:46;;;;;;;15.67;3.90;;;3.10;99.90;;;;;;5021404;28;20034;-83
2023/01/31 10:27:39;;;;;;;12.80;2.63;;;3.20;99.90;;;;;;5023087;28;20021;-83
2023/01/31 10:30:13;;;;;;;10.30;2.43;;;3.10;99.90;;;;;;5017023;28;20096;-83
2023/01/31 10:32:47;;;;;;;11.67;3.00;;;3.00;99.90;;;;;;5022632;28;20636;-83
2023/01/31 10:35:19;;;;;;;12.82;3.67;;;3.00;99.90;;;;;;5023564;28;20025;-82
2023/01/31 10:37:52;;;;;;;15.27;3.20;;;3.10;99.90;;;;;;5022659;28;21638;-83
2023/01/31 10:40:32;;;;;;;14.47;3.60;;;3.30;99.90;;;;;;5023245;28;20060;-82
2023/01/31 10:43:10;;;;;;;10.67;3.23;;;3.50;99.90;;;;;;5022275;28;20033;-83
2023/01/31 10:45:37;;;;;;;12.20;2.97;;;3.50;99.90;;;;;;5022885;28;20878;-83
2023/01/31 10:48:24;;;;;;;13.57;2.63;;;3.50;99.90;;;;;;5020994;28;20044;-82
2023/01/31 10:50:55;;;;;;;11.77;2.90;;;3.60;99.90;;;;;;5022022;28;20028;-82
2023/01/31 10:53:45;;;;;;;7.07;2.70;;;3.60;99.90;;;;;;5022884;28;20673;-82
2023/01/31 10:56:18;;;;;;;12.10;2.53;;;3.60;99.90;;;;;;5027228;28;20056;-82
2023/01/31 10:58:45;;;;;;;9.37;2.80;;;3.60;99.90;;;;;;5026287;28;20566;-82
2023/01/31 11:01:13;;;;;;;18.10;3.57;;;3.60;99.90;;;;;;5027480;28;20431;-82
2023/01/31 11:03:39;;;;;;;12.17;3.87;;;3.50;99.90;;;;;;5025044;28;20036;-83
2023/01/31 11:06:05;;;;;;;18.10;3.03;;;3.60;99.90;;;;;;5027563;28;21072;-82
2023/01/31 11:08:55;;;;;;;15.07;3.27;;;3.50;99.90;;;;;;5026452;28;20067;-82
2023/01/31 11:11:23;;;;;;;13.10;3.87;;;3.50;99.90;;;;;;5024648;28;20037;-82
2023/01/31 11:14:06;;;;;;;10.30;3.27;;;3.40;99.90;;;;;;5027936;28;20104;-83
2023/01/31 11:16:39;;;;;;;9.33;3.10;;;3.40;99.90;;;;;;5028180;28;20101;-82
2023/01/31 11:19:27;;;;;;;11.87;3.53;;;3.40;99.90;;;;;;5026639;28;20099;-82
2023/01/31 11:21:56;;;;;;;9.67;2.87;;;3.40;99.90;;;;;;5028233;28;20029;-83
2023/01/31 11:24:29;;;;;;;13.83;3.50;;;3.30;99.90;;;;;;5027693;28;20072;-82
2023/01/31 11:27:03;;;;;;;6.20;3.20;;;3.20;99.90;;;;;;5031632;28;20117;-83
2023/01/31 11:29:54;;;;;;;11.37;4.13;;;3.20;99.90;;;;;;5034381;28;20108;-83
2023/01/31 11:32:27;;;;;;;9.03;3.60;;;3.30;99.90;;;;;;5033537;28;20091;-83
2023/01/31 11:34:57;;;;;;;12.17;3.20;;;3.30;99.90;;;;;;5032166;28;20079;-83
2023/01/31 11:37:23;;;;;;;8.80;3.53;;;3.30;99.90;;;;;;5033260;28;21469;-83
2023/01/31 11:40:25;;;;;;;9.60;3.50;;;3.40;99.90;;;;;;5033897;28;20025;-83
2023/01/31 11:42:56;;;;;;;11.10;3.70;;;3.30;99.90;;;;;;5033886;28;20020;-83
2023/01/31 11:45:26;;;;;;;14.63;3.90;;;3.30;99.90;;;;;;5033689;28;20528;-83
2023/01/31 11:47:54;;;;;;;9.70;3.77;;;3.40;99.90;;;;;;5034040;28;20025;-83
2023/01/31 11:50:32;;;;;;;11.53;4.47;;;3.40;99.90;;;;;;5034042;28;20034;-83
2023/01/31 11:53:00;;;;;;;11.97;4.40;;;3.50;99.90;;;;;;5033770;28;20028;-83
2023/01/31 11:55:32;;;;;;;10.50;3.93;;;3.50;99.90;;;;;;5033827;28;20051;-83
2023/01/31 11:58:01;;;;;;;10.63;4.57;;;3.60;99.90;;;;;;5034250;28;20028;-83
2023/01/31 12:00:31;;;;;;;11.97;4.10;;;3.60;99.90;;;;;;5033603;28;20133;-83
2023/01/31 12:03:06;;;;;;;11.87;4.30;;;3.60;99.90;;;;;;5032558;28;20025;-83
2023/01/31 12:05:59;;;;;;;9.32;4.25;;;3.60;99.90;;;;;;5032927;28;20029;-83
2023/01/31 12:08:37;;;;;;;9.80;4.60;;;3.50;99.90;;;;;;5028044;28;20077;-83
2023/01/31 12:11:18;;;;;;;10.77;4.20;;;3.50;99.90;;;;;;5034640;28;20067;-83
2023/01/31 12:14:00;;;;;;;7.07;3.90;;;3.60;99.90;;;;;;5033294;28;20038;-83
2023/01/31 12:16:29;;;;;;;11.67;4.30;;;3.60;99.90;;;;;;5031009;28;20124;-83
2023/01/31 12:19:13;;;;;;;11.63;4.47;;;3.60;99.90;;;;;;5032267;28;20034;-83
2023/01/31 12:22:01;;;;;;;9.13;4.47;;;3.50;99.90;;;;;;5048915;28;20616;-83
2023/01/31 12:25:01;;;;;;;11.93;4.30;;;3.40;99.90;;;;;;5033273;28;20029;-83
2023/01/31 12:27:44;;;;;;;10.47;4.27;;;3.40;99.90;;;;;;5032249;28;20028;-83
2023/01/31 12:30:34;;;;;;;9.50;4.33;;;3.40;99.90;;;;;;5032916;28;20125;-83
2023/01/31 12:33:28;;;;;;;8.17;4.67;;;3.40;99.90;;;;;;5033404;28;20036;-83
2023/01/31 12:36:09;;;;;;;9.10;4.83;;;3.40;99.90;;;;;;5031566;28;20033;-83
2023/01/31 12:39:12;;;;;;;9.73;5.40;;;3.50;99.90;;;;;;5029014;28;20520;-83
2023/01/31 12:42:11;;;;;;;10.53;4.77;;;3.50;99.90;;;;;;5031194;28;20034;-83
2023/01/31 12:44:48;;;;;;;8.87;4.50;;;3.50;99.90;;;;;;5029294;28;20056;-83
2023/01/31 12:47:23;;;;;;;7.63;4.90;;;3.50;99.90;;;;;;5027741;28;20034;-83
2023/01/31 12:50:02;;;;;;;16.20;5.25;;;3.50;99.90;;;;;;5022976;28;20033;-83
2023/01/31 12:52:46;;;;;;;6.70;4.63;;;3.50;99.90;;;;;;5023848;28;20029;-83
2023/01/31 12:55:33;;;;;;;9.13;5.10;;;3.50;99.90;;;;;;5025209;28;20563;-83
2023/01/31 12:58:24;;;;;;;9.43;5.07;;;3.60;99.90;;;;;;5021432;28;20091;-84
2023/01/31 13:01:06;;;;;;;8.90;5.50;;;3.80;99.90;;;;;;5026143;28;20033;-84
2023/01/31 13:03:56;;;;;;;8.43;5.27;;;3.80;99.90;;;;;;5023450;28;20037;-84
2023/01/31 13:06:29;;;;;;;8.37;5.03;;;3.80;99.90;;;;;;5023619;28;20030;-84
2023/01/31 13:09:09;;;;;;;8.90;5.43;;;4.00;99.90;;;;;;5022785;28;20045;-84
2023/01/31 13:12:10;;;;;;;8.63;5.40;;;4.00;99.90;;;;;;5024072;28;20079;-84
2023/01/31 13:14:41;;;;;;;9.73;5.63;;;4.00;99.90;;;;;;5026877;28;20029;-84